sensor_id;sensor_type;location;lat;lon;timestamp;temperature;humidity
3308;DHT22;1666;48.898;9.182;2022-12-07T00:00:36;3.50;38.20
3308;DHT22;1666;48.898;9.182;2022-12-07T00:03:06;3.50;39.10
3308;DHT22;1666;48.898;9.182;2022-12-07T00:05:39;3.50;38.00
3308;DHT22;1666;48.898;9.182;2022-12-07T00:08:08;3.50;38.30
3308;DHT22;1666;48.898;9.182;2022-12-07T00:10:38;3.50;38.20
3308;DHT22;1666;48.898;9.182;2022-12-07T00:13:08;3.50;38.40
3308;DHT22;1666;48.898;9.182;2022-12-07T00:15:38;3.40;37.90
3308;DHT22;1666;48.898;9.182;2022-12-07T00:18:08;3.40;38.30
3308;DHT22;1666;48.898;9.182;2022-12-07T00:20:40;3.40;38.10
3308;DHT22;1666;48.898;9.182;2022-12-07T00:23:10;3.40;37.60
3308;DHT22;1666;48.898;9.182;2022-12-07T00:25:40;3.40;38.00
3308;DHT22;1666;48.898;9.182;2022-12-07T00:28:10;3.40;38.20
3308;DHT22;1666;48.898;9.182;2022-12-07T00:30:39;3.40;38.50
3308;DHT22;1666;48.898;9.182;2022-12-07T00:33:09;3.40;38.80
3308;DHT22;1666;48.898;9.182;2022-12-07T00:35:42;3.40;38.10
3308;DHT22;1666;48.898;9.182;2022-12-07T00:38:11;3.40;38.40
3308;DHT22;1666;48.898;9.182;2022-12-07T00:40:41;3.40;38.30
3308;DHT22;1666;48.898;9.182;2022-12-07T00:43:11;3.30;38.40
3308;DHT22;1666;48.898;9.182;2022-12-07T00:45:41;3.40;38.00
3308;DHT22;1666;48.898;9.182;2022-12-07T00:48:11;3.30;38.40
3308;DHT22;1666;48.898;9.182;2022-12-07T00:50:43;3.30;38.40
3308;DHT22;1666;48.898;9.182;2022-12-07T00:53:14;3.30;38.30
3308;DHT22;1666;48.898;9.182;2022-12-07T00:55:44;3.20;38.40
3308;DHT22;1666;48.898;9.182;2022-12-07T00:58:15;3.20;38.70
3308;DHT22;1666;48.898;9.182;2022-12-07T01:00:45;3.20;38.60
3308;DHT22;1666;48.898;9.182;2022-12-07T01:03:16;3.20;38.80
3308;DHT22;1666;48.898;9.182;2022-12-07T01:05:52;3.20;38.40
3308;DHT22;1666;48.898;9.182;2022-12-07T01:08:23;3.20;38.60
3308;DHT22;1666;48.898;9.182;2022-12-07T01:10:58;3.20;36.60
3308;DHT22;1666;48.898;9.182;2022-12-07T01:13:28;3.20;36.60
3308;DHT22;1666;48.898;9.182;2022-12-07T01:15:59;3.20;36.60
3308;DHT22;1666;48.898;9.182;2022-12-07T01:18:32;3.20;34.90
3308;DHT22;1666;48.898;9.182;2022-12-07T01:21:06;3.20;35.10
3308;DHT22;1666;48.898;9.182;2022-12-07T01:23:36;3.20;34.30
3308;DHT22;1666;48.898;9.182;2022-12-07T01:26:09;3.20;34.20
3308;DHT22;1666;48.898;9.182;2022-12-07T01:28:39;3.20;33.30
3308;DHT22;1666;48.898;9.182;2022-12-07T01:31:12;3.20;32.30
3308;DHT22;1666;48.898;9.182;2022-12-07T01:33:43;3.20;31.80
3308;DHT22;1666;48.898;9.182;2022-12-07T01:36:17;3.30;32.00
3308;DHT22;1666;48.898;9.182;2022-12-07T01:38:49;3.20;31.80
3308;DHT22;1666;48.898;9.182;2022-12-07T01:41:21;3.30;32.10
3308;DHT22;1666;48.898;9.182;2022-12-07T01:44:07;3.30;31.60
3308;DHT22;1666;48.898;9.182;2022-12-07T01:46:38;3.20;30.10
3308;DHT22;1666;48.898;9.182;2022-12-07T01:49:11;3.20;31.20
3308;DHT22;1666;48.898;9.182;2022-12-07T01:51:47;3.30;31.20
3308;DHT22;1666;48.898;9.182;2022-12-07T01:54:20;3.30;30.80
3308;DHT22;1666;48.898;9.182;2022-12-07T01:56:52;3.20;30.40
3308;DHT22;1666;48.898;9.182;2022-12-07T01:59:24;3.30;30.80
3308;DHT22;1666;48.898;9.182;2022-12-07T02:01:55;3.20;30.30
3308;DHT22;1666;48.898;9.182;2022-12-07T02:04:25;3.30;31.30
3308;DHT22;1666;48.898;9.182;2022-12-07T02:06:58;3.20;31.00
3308;DHT22;1666;48.898;9.182;2022-12-07T02:09:28;3.20;31.60
3308;DHT22;1666;48.898;9.182;2022-12-07T02:11:57;3.30;32.20
3308;DHT22;1666;48.898;9.182;2022-12-07T02:14:27;3.30;32.50
3308;DHT22;1666;48.898;9.182;2022-12-07T02:17:05;3.30;32.50
3308;DHT22;1666;48.898;9.182;2022-12-07T02:23:00;3.30;32.60
3308;DHT22;1666;48.898;9.182;2022-12-07T02:25:59;3.20;32.40
3308;DHT22;1666;48.898;9.182;2022-12-07T02:28:34;3.30;33.60
3308;DHT22;1666;48.898;9.182;2022-12-07T02:31:14;3.30;33.90
3308;DHT22;1666;48.898;9.182;2022-12-07T02:33:50;3.30;34.00
3308;DHT22;1666;48.898;9.182;2022-12-07T02:36:26;3.30;34.10
3308;DHT22;1666;48.898;9.182;2022-12-07T02:39:00;3.20;34.40
3308;DHT22;1666;48.898;9.182;2022-12-07T02:41:35;3.30;35.20
3308;DHT22;1666;48.898;9.182;2022-12-07T02:44:10;3.30;35.40
3308;DHT22;1666;48.898;9.182;2022-12-07T02:46:46;3.30;35.40
3308;DHT22;1666;48.898;9.182;2022-12-07T02:49:19;3.30;35.70
3308;DHT22;1666;48.898;9.182;2022-12-07T02:51:52;3.30;36.10
3308;DHT22;1666;48.898;9.182;2022-12-07T02:54:22;3.20;36.50
3308;DHT22;1666;48.898;9.182;2022-12-07T02:56:57;3.20;37.20
3308;DHT22;1666;48.898;9.182;2022-12-07T02:59:35;3.20;36.60
3308;DHT22;1666;48.898;9.182;2022-12-07T03:02:17;3.20;36.60
3308;DHT22;1666;48.898;9.182;2022-12-07T03:04:58;3.20;36.60
3308;DHT22;1666;48.898;9.182;2022-12-07T03:07:36;3.20;36.60
3308;DHT22;1666;48.898;9.182;2022-12-07T03:10:14;3.20;37.20
3308;DHT22;1666;48.898;9.182;2022-12-07T03:12:53;3.20;37.40
3308;DHT22;1666;48.898;9.182;2022-12-07T03:15:31;3.20;37.20
3308;DHT22;1666;48.898;9.182;2022-12-07T03:18:07;3.10;37.20
3308;DHT22;1666;48.898;9.182;2022-12-07T03:20:39;3.10;37.40
3308;DHT22;1666;48.898;9.182;2022-12-07T03:23:12;3.10;37.50
3308;DHT22;1666;48.898;9.182;2022-12-07T03:25:49;3.10;37.50
3308;DHT22;1666;48.898;9.182;2022-12-07T03:28:29;3.10;37.40
3308;DHT22;1666;48.898;9.182;2022-12-07T03:31:03;3.10;37.70
3308;DHT22;1666;48.898;9.182;2022-12-07T03:33:41;3.00;37.40
3308;DHT22;1666;48.898;9.182;2022-12-07T03:36:20;3.00;37.50
3308;DHT22;1666;48.898;9.182;2022-12-07T03:38:55;3.00;37.80
3308;DHT22;1666;48.898;9.182;2022-12-07T03:41:29;3.00;37.60
3308;DHT22;1666;48.898;9.182;2022-12-07T03:43:59;3.00;37.90
3308;DHT22;1666;48.898;9.182;2022-12-07T03:46:36;3.00;37.50
3308;DHT22;1666;48.898;9.182;2022-12-07T03:49:20;3.00;37.40
3308;DHT22;1666;48.898;9.182;2022-12-07T03:51:55;3.00;37.40
3308;DHT22;1666;48.898;9.182;2022-12-07T03:54:30;2.90;36.80
3308;DHT22;1666;48.898;9.182;2022-12-07T03:57:03;3.00;36.80
3308;DHT22;1666;48.898;9.182;2022-12-07T03:59:34;3.00;36.40
3308;DHT22;1666;48.898;9.182;2022-12-07T04:02:06;3.00;36.30
3308;DHT22;1666;48.898;9.182;2022-12-07T04:04:39;3.00;35.40
3308;DHT22;1666;48.898;9.182;2022-12-07T04:07:09;3.00;34.50
3308;DHT22;1666;48.898;9.182;2022-12-07T04:09:39;3.00;33.90
3308;DHT22;1666;48.898;9.182;2022-12-07T04:12:09;3.00;33.70
3308;DHT22;1666;48.898;9.182;2022-12-07T04:14:39;3.00;32.90
3308;DHT22;1666;48.898;9.182;2022-12-07T04:17:09;3.00;32.10
3308;DHT22;1666;48.898;9.182;2022-12-07T04:19:41;3.00;32.10
3308;DHT22;1666;48.898;9.182;2022-12-07T04:22:11;3.00;32.00
3308;DHT22;1666;48.898;9.182;2022-12-07T04:24:41;3.00;31.30
3308;DHT22;1666;48.898;9.182;2022-12-07T04:27:11;3.00;30.80
3308;DHT22;1666;48.898;9.182;2022-12-07T04:29:41;3.00;30.30
3308;DHT22;1666;48.898;9.182;2022-12-07T04:32:11;3.00;29.90
3308;DHT22;1666;48.898;9.182;2022-12-07T04:34:44;3.00;29.40
3308;DHT22;1666;48.898;9.182;2022-12-07T04:37:21;3.00;29.10
3308;DHT22;1666;48.898;9.182;2022-12-07T04:39:51;2.90;28.70
3308;DHT22;1666;48.898;9.182;2022-12-07T04:42:20;2.90;28.40
3308;DHT22;1666;48.898;9.182;2022-12-07T04:44:50;2.90;27.80
3308;DHT22;1666;48.898;9.182;2022-12-07T04:47:20;2.90;27.10
3308;DHT22;1666;48.898;9.182;2022-12-07T04:49:52;2.90;26.20
3308;DHT22;1666;48.898;9.182;2022-12-07T04:52:22;2.90;26.30
3308;DHT22;1666;48.898;9.182;2022-12-07T04:54:52;2.80;26.30
3308;DHT22;1666;48.898;9.182;2022-12-07T04:57:22;2.80;27.40
3308;DHT22;1666;48.898;9.182;2022-12-07T04:59:52;2.70;27.70
3308;DHT22;1666;48.898;9.182;2022-12-07T05:02:22;2.70;28.60
3308;DHT22;1666;48.898;9.182;2022-12-07T05:04:54;2.70;29.40
3308;DHT22;1666;48.898;9.182;2022-12-07T05:07:24;2.70;30.10
3308;DHT22;1666;48.898;9.182;2022-12-07T05:09:54;2.60;30.00
3308;DHT22;1666;48.898;9.182;2022-12-07T05:12:23;2.60;30.10
3308;DHT22;1666;48.898;9.182;2022-12-07T05:14:53;2.60;30.50
3308;DHT22;1666;48.898;9.182;2022-12-07T05:17:23;2.50;31.10
3308;DHT22;1666;48.898;9.182;2022-12-07T05:19:56;2.50;31.90
3308;DHT22;1666;48.898;9.182;2022-12-07T05:22:26;2.50;32.50
3308;DHT22;1666;48.898;9.182;2022-12-07T05:24:56;2.50;33.10
3308;DHT22;1666;48.898;9.182;2022-12-07T05:27:26;2.40;33.30
3308;DHT22;1666;48.898;9.182;2022-12-07T05:29:56;2.40;34.30
3308;DHT22;1666;48.898;9.182;2022-12-07T05:32:26;2.50;35.60
3308;DHT22;1666;48.898;9.182;2022-12-07T05:34:59;2.50;35.90
3308;DHT22;1666;48.898;9.182;2022-12-07T05:37:28;2.50;36.00
3308;DHT22;1666;48.898;9.182;2022-12-07T05:39:58;2.50;36.00
3308;DHT22;1666;48.898;9.182;2022-12-07T05:42:28;2.50;36.10
3308;DHT22;1666;48.898;9.182;2022-12-07T05:44:58;2.50;36.00
3308;DHT22;1666;48.898;9.182;2022-12-07T05:47:29;2.60;36.10
3308;DHT22;1666;48.898;9.182;2022-12-07T05:50:03;2.60;35.80
3308;DHT22;1666;48.898;9.182;2022-12-07T05:52:34;2.60;35.70
3308;DHT22;1666;48.898;9.182;2022-12-07T05:55:04;2.60;34.70
3308;DHT22;1666;48.898;9.182;2022-12-07T05:57:34;2.60;31.50
3308;DHT22;1666;48.898;9.182;2022-12-07T06:00:07;2.70;31.70
3308;DHT22;1666;48.898;9.182;2022-12-07T06:02:34;2.70;30.00
3308;DHT22;1666;48.898;9.182;2022-12-07T06:05:07;2.70;28.40
3308;DHT22;1666;48.898;9.182;2022-12-07T06:07:37;2.70;27.30
3308;DHT22;1666;48.898;9.182;2022-12-07T06:10:08;2.70;26.90
3308;DHT22;1666;48.898;9.182;2022-12-07T06:12:38;2.70;26.90
3308;DHT22;1666;48.898;9.182;2022-12-07T06:15:10;2.70;26.30
3308;DHT22;1666;48.898;9.182;2022-12-07T06:17:40;2.80;26.10
3308;DHT22;1666;48.898;9.182;2022-12-07T06:20:12;2.80;25.00
3308;DHT22;1666;48.898;9.182;2022-12-07T06:22:42;2.80;25.00
3308;DHT22;1666;48.898;9.182;2022-12-07T06:25:12;2.80;23.80
3308;DHT22;1666;48.898;9.182;2022-12-07T06:27:42;2.80;22.20
3308;DHT22;1666;48.898;9.182;2022-12-07T06:30:12;2.90;21.00
3308;DHT22;1666;48.898;9.182;2022-12-07T06:32:42;2.80;20.70
3308;DHT22;1666;48.898;9.182;2022-12-07T06:35:14;2.80;19.60
3308;DHT22;1666;48.898;9.182;2022-12-07T06:37:44;2.80;18.20
3308;DHT22;1666;48.898;9.182;2022-12-07T06:40:14;2.90;18.30
3308;DHT22;1666;48.898;9.182;2022-12-07T06:42:44;2.80;17.30
3308;DHT22;1666;48.898;9.182;2022-12-07T06:45:14;2.90;16.70
3308;DHT22;1666;48.898;9.182;2022-12-07T06:47:44;2.90;14.80
3308;DHT22;1666;48.898;9.182;2022-12-07T06:50:17;2.90;14.80
3308;DHT22;1666;48.898;9.182;2022-12-07T06:52:46;2.90;13.80
3308;DHT22;1666;48.898;9.182;2022-12-07T06:55:16;3.00;12.80
3308;DHT22;1666;48.898;9.182;2022-12-07T06:57:46;2.90;11.30
3308;DHT22;1666;48.898;9.182;2022-12-07T07:00:17;3.00;11.30
3308;DHT22;1666;48.898;9.182;2022-12-07T07:02:48;3.00;9.80
3308;DHT22;1666;48.898;9.182;2022-12-07T07:05:21;3.00;8.70
3308;DHT22;1666;48.898;9.182;2022-12-07T07:07:51;3.00;9.00
3308;DHT22;1666;48.898;9.182;2022-12-07T07:10:42;3.00;8.60
3308;DHT22;1666;48.898;9.182;2022-12-07T07:13:12;3.00;8.90
3308;DHT22;1666;48.898;9.182;2022-12-07T07:15:42;3.00;9.10
3308;DHT22;1666;48.898;9.182;2022-12-07T07:18:12;3.00;8.20
3308;DHT22;1666;48.898;9.182;2022-12-07T07:20:45;3.00;7.80
3308;DHT22;1666;48.898;9.182;2022-12-07T07:23:14;3.10;7.80
3308;DHT22;1666;48.898;9.182;2022-12-07T07:25:44;3.10;7.80
3308;DHT22;1666;48.898;9.182;2022-12-07T07:28:15;3.10;7.80
3308;DHT22;1666;48.898;9.182;2022-12-07T07:30:45;3.10;8.20
3308;DHT22;1666;48.898;9.182;2022-12-07T07:33:15;3.10;9.10
3308;DHT22;1666;48.898;9.182;2022-12-07T07:35:48;3.10;8.50
3308;DHT22;1666;48.898;9.182;2022-12-07T07:38:20;3.10;8.40
3308;DHT22;1666;48.898;9.182;2022-12-07T07:40:50;3.20;8.50
3308;DHT22;1666;48.898;9.182;2022-12-07T07:43:20;3.20;7.80
3308;DHT22;1666;48.898;9.182;2022-12-07T07:45:50;3.20;7.60
3308;DHT22;1666;48.898;9.182;2022-12-07T07:48:20;3.20;7.80
3308;DHT22;1666;48.898;9.182;2022-12-07T07:50:54;3.20;7.80
3308;DHT22;1666;48.898;9.182;2022-12-07T07:53:24;3.30;8.20
3308;DHT22;1666;48.898;9.182;2022-12-07T07:55:54;3.30;7.80
3308;DHT22;1666;48.898;9.182;2022-12-07T07:58:24;3.30;7.60
3308;DHT22;1666;48.898;9.182;2022-12-07T08:00:54;3.30;6.40
3308;DHT22;1666;48.898;9.182;2022-12-07T08:03:24;3.40;6.40
3308;DHT22;1666;48.898;9.182;2022-12-07T08:05:56;3.40;5.60
3308;DHT22;1666;48.898;9.182;2022-12-07T08:08:26;3.50;5.40
3308;DHT22;1666;48.898;9.182;2022-12-07T08:10:56;3.50;5.50
3308;DHT22;1666;48.898;9.182;2022-12-07T08:13:27;3.50;4.90
3308;DHT22;1666;48.898;9.182;2022-12-07T08:15:58;3.60;4.40
3308;DHT22;1666;48.898;9.182;2022-12-07T08:18:28;3.60;3.20
3308;DHT22;1666;48.898;9.182;2022-12-07T08:21:01;3.70;2.70
3308;DHT22;1666;48.898;9.182;2022-12-07T08:23:31;3.70;1.90
3308;DHT22;1666;48.898;9.182;2022-12-07T08:26:08;3.80;1.00
3308;DHT22;1666;48.898;9.182;2022-12-07T08:28:39;3.80;1.00
3308;DHT22;1666;48.898;9.182;2022-12-07T08:31:11;3.80;1.00
3308;DHT22;1666;48.898;9.182;2022-12-07T08:33:42;3.80;1.00
3308;DHT22;1666;48.898;9.182;2022-12-07T08:36:15;3.90;1.00
3308;DHT22;1666;48.898;9.182;2022-12-07T08:38:44;3.90;1.00
3308;DHT22;1666;48.898;9.182;2022-12-07T08:41:35;4.00;1.00
3308;DHT22;1666;48.898;9.182;2022-12-07T08:44:05;4.10;1.00
3308;DHT22;1666;48.898;9.182;2022-12-07T08:46:37;4.20;1.00
3308;DHT22;1666;48.898;9.182;2022-12-07T08:49:11;4.30;1.00
3308;DHT22;1666;48.898;9.182;2022-12-07T08:51:44;4.30;1.00
3308;DHT22;1666;48.898;9.182;2022-12-07T08:54:17;4.40;1.00
3308;DHT22;1666;48.898;9.182;2022-12-07T08:56:48;4.40;1.00
3308;DHT22;1666;48.898;9.182;2022-12-07T08:59:25;4.50;1.00
3308;DHT22;1666;48.898;9.182;2022-12-07T09:01:55;4.50;1.00
3308;DHT22;1666;48.898;9.182;2022-12-07T09:04:25;4.60;1.00
3308;DHT22;1666;48.898;9.182;2022-12-07T09:06:59;4.50;1.00
3308;DHT22;1666;48.898;9.182;2022-12-07T09:09:29;4.60;1.00
3308;DHT22;1666;48.898;9.182;2022-12-07T09:11:58;4.70;1.00
3308;DHT22;1666;48.898;9.182;2022-12-07T09:14:28;4.80;1.00
3308;DHT22;1666;48.898;9.182;2022-12-07T09:17:05;4.60;1.00
3308;DHT22;1666;48.898;9.182;2022-12-07T09:19:38;4.80;1.00
3308;DHT22;1666;48.898;9.182;2022-12-07T09:22:11;4.80;1.00
3308;DHT22;1666;48.898;9.182;2022-12-07T09:24:41;4.80;1.00
3308;DHT22;1666;48.898;9.182;2022-12-07T09:27:12;4.80;1.00
3308;DHT22;1666;48.898;9.182;2022-12-07T09:29:44;5.00;1.00
3308;DHT22;1666;48.898;9.182;2022-12-07T09:32:14;5.00;1.00
3308;DHT22;1666;48.898;9.182;2022-12-07T09:34:44;5.00;1.00
3308;DHT22;1666;48.898;9.182;2022-12-07T09:37:16;4.90;1.00
3308;DHT22;1666;48.898;9.182;2022-12-07T09:39:46;5.00;1.00
3308;DHT22;1666;48.898;9.182;2022-12-07T09:42:26;4.80;1.00
3308;DHT22;1666;48.898;9.182;2022-12-07T09:44:58;4.80;1.00
3308;DHT22;1666;48.898;9.182;2022-12-07T09:47:28;4.80;1.00
3308;DHT22;1666;48.898;9.182;2022-12-07T09:50:05;4.70;1.00
3308;DHT22;1666;48.898;9.182;2022-12-07T09:52:40;4.70;1.00
3308;DHT22;1666;48.898;9.182;2022-12-07T09:55:13;4.60;1.00
3308;DHT22;1666;48.898;9.182;2022-12-07T09:57:43;4.70;1.00
3308;DHT22;1666;48.898;9.182;2022-12-07T10:00:16;4.80;1.00
3308;DHT22;1666;48.898;9.182;2022-12-07T10:02:47;4.70;1.00
3308;DHT22;1666;48.898;9.182;2022-12-07T10:05:22;4.80;1.00
3308;DHT22;1666;48.898;9.182;2022-12-07T10:07:56;4.60;1.00
3308;DHT22;1666;48.898;9.182;2022-12-07T10:10:29;4.50;1.00
3308;DHT22;1666;48.898;9.182;2022-12-07T10:13:06;4.70;1.00
3308;DHT22;1666;48.898;9.182;2022-12-07T10:15:51;4.80;1.00
3308;DHT22;1666;48.898;9.182;2022-12-07T10:18:29;4.90;1.00
3308;DHT22;1666;48.898;9.182;2022-12-07T10:21:05;5.00;1.00
3308;DHT22;1666;48.898;9.182;2022-12-07T10:23:40;5.00;1.00
3308;DHT22;1666;48.898;9.182;2022-12-07T10:26:20;4.80;1.00
3308;DHT22;1666;48.898;9.182;2022-12-07T10:28:51;4.80;1.00
3308;DHT22;1666;48.898;9.182;2022-12-07T10:31:22;4.80;1.00
3308;DHT22;1666;48.898;9.182;2022-12-07T10:33:54;4.80;1.00
3308;DHT22;1666;48.898;9.182;2022-12-07T10:36:26;4.70;1.00
3308;DHT22;1666;48.898;9.182;2022-12-07T10:39:03;4.60;1.30
3308;DHT22;1666;48.898;9.182;2022-12-07T10:41:33;4.70;2.10
3308;DHT22;1666;48.898;9.182;2022-12-07T10:44:03;4.70;2.40
3308;DHT22;1666;48.898;9.182;2022-12-07T10:46:53;4.40;4.00
3308;DHT22;1666;48.898;9.182;2022-12-07T10:50:02;4.50;5.00
3308;DHT22;1666;48.898;9.182;2022-12-07T10:52:45;4.50;3.90
3308;DHT22;1666;48.898;9.182;2022-12-07T10:55:39;4.70;3.80
3308;DHT22;1666;48.898;9.182;2022-12-07T10:58:27;4.70;2.50
3308;DHT22;1666;48.898;9.182;2022-12-07T11:01:06;4.60;3.60
3308;DHT22;1666;48.898;9.182;2022-12-07T11:03:50;4.60;5.60
3308;DHT22;1666;48.898;9.182;2022-12-07T11:06:29;4.60;5.10
3308;DHT22;1666;48.898;9.182;2022-12-07T11:09:18;4.30;6.10
3308;DHT22;1666;48.898;9.182;2022-12-07T11:12:20;4.40;7.30
3308;DHT22;1666;48.898;9.182;2022-12-07T11:14:58;4.40;6.80
3308;DHT22;1666;48.898;9.182;2022-12-07T11:17:35;4.50;7.40
3308;DHT22;1666;48.898;9.182;2022-12-07T11:20:16;4.50;5.90
3308;DHT22;1666;48.898;9.182;2022-12-07T11:22:57;4.50;7.30
3308;DHT22;1666;48.898;9.182;2022-12-07T11:25:32;4.60;7.60
3308;DHT22;1666;48.898;9.182;2022-12-07T11:28:20;4.50;6.50
3308;DHT22;1666;48.898;9.182;2022-12-07T11:30:57;4.50;7.70
3308;DHT22;1666;48.898;9.182;2022-12-07T11:33:35;4.40;7.50
3308;DHT22;1666;48.898;9.182;2022-12-07T11:36:17;4.40;6.50
3308;DHT22;1666;48.898;9.182;2022-12-07T11:38:55;4.40;6.30
3308;DHT22;1666;48.898;9.182;2022-12-07T11:41:29;4.50;6.60
3308;DHT22;1666;48.898;9.182;2022-12-07T11:44:06;4.70;6.50
3308;DHT22;1666;48.898;9.182;2022-12-07T11:46:45;4.40;6.90
3308;DHT22;1666;48.898;9.182;2022-12-07T11:49:23;4.30;7.30
3308;DHT22;1666;48.898;9.182;2022-12-07T11:51:56;4.50;7.20
3308;DHT22;1666;48.898;9.182;2022-12-07T11:54:29;4.60;6.20
3308;DHT22;1666;48.898;9.182;2022-12-07T11:57:03;4.80;5.70
3308;DHT22;1666;48.898;9.182;2022-12-07T11:59:40;4.70;4.10
3308;DHT22;1666;48.898;9.182;2022-12-07T12:02:14;4.70;5.10
3308;DHT22;1666;48.898;9.182;2022-12-07T12:04:51;4.70;4.00
3308;DHT22;1666;48.898;9.182;2022-12-07T12:07:26;4.80;3.70
3308;DHT22;1666;48.898;9.182;2022-12-07T12:10:20;4.50;3.50
3308;DHT22;1666;48.898;9.182;2022-12-07T12:13:19;4.70;3.80
3308;DHT22;1666;48.898;9.182;2022-12-07T12:16:29;4.70;3.00
3308;DHT22;1666;48.898;9.182;2022-12-07T12:19:25;4.80;3.40
3308;DHT22;1666;48.898;9.182;2022-12-07T12:21:58;4.70;3.50
3308;DHT22;1666;48.898;9.182;2022-12-07T12:24:33;4.70;2.90
3308;DHT22;1666;48.898;9.182;2022-12-07T12:27:08;4.70;3.40
3308;DHT22;1666;48.898;9.182;2022-12-07T12:29:40;4.50;3.30
3308;DHT22;1666;48.898;9.182;2022-12-07T12:32:19;4.70;5.00
3308;DHT22;1666;48.898;9.182;2022-12-07T12:35:22;4.50;5.00
3308;DHT22;1666;48.898;9.182;2022-12-07T12:37:54;4.50;5.80
3308;DHT22;1666;48.898;9.182;2022-12-07T12:40:42;4.70;5.10
3308;DHT22;1666;48.898;9.182;2022-12-07T12:43:42;4.60;4.20
3308;DHT22;1666;48.898;9.182;2022-12-07T12:49:35;4.60;4.30
3308;DHT22;1666;48.898;9.182;2022-12-07T12:58:41;4.60;5.00
3308;DHT22;1666;48.898;9.182;2022-12-07T13:01:38;4.70;4.30
3308;DHT22;1666;48.898;9.182;2022-12-07T13:10:42;4.60;5.40
3308;DHT22;1666;48.898;9.182;2022-12-07T13:13:35;4.80;5.70
3308;DHT22;1666;48.898;9.182;2022-12-07T13:16:36;4.80;5.20
3308;DHT22;1666;48.898;9.182;2022-12-07T13:25:36;4.90;4.40
3308;DHT22;1666;48.898;9.182;2022-12-07T13:28:15;4.80;5.20
3308;DHT22;1666;48.898;9.182;2022-12-07T13:31:00;4.80;5.20
3308;DHT22;1666;48.898;9.182;2022-12-07T13:33:35;4.70;5.10
3308;DHT22;1666;48.898;9.182;2022-12-07T13:36:14;4.70;6.00
3308;DHT22;1666;48.898;9.182;2022-12-07T13:38:56;4.90;5.80
3308;DHT22;1666;48.898;9.182;2022-12-07T13:41:27;4.90;5.90
3308;DHT22;1666;48.898;9.182;2022-12-07T13:44:07;4.80;5.20
3308;DHT22;1666;48.898;9.182;2022-12-07T13:46:47;4.60;6.20
3308;DHT22;1666;48.898;9.182;2022-12-07T13:49:21;4.70;7.40
3308;DHT22;1666;48.898;9.182;2022-12-07T13:51:53;4.80;7.20
3308;DHT22;1666;48.898;9.182;2022-12-07T13:54:23;4.70;5.10
3308;DHT22;1666;48.898;9.182;2022-12-07T13:56:53;4.70;5.40
3308;DHT22;1666;48.898;9.182;2022-12-07T13:59:26;4.60;6.90
3308;DHT22;1666;48.898;9.182;2022-12-07T14:02:00;4.70;7.00
3308;DHT22;1666;48.898;9.182;2022-12-07T14:04:32;4.70;6.00
3308;DHT22;1666;48.898;9.182;2022-12-07T14:07:18;4.60;6.30
3308;DHT22;1666;48.898;9.182;2022-12-07T14:10:00;4.50;7.40
3308;DHT22;1666;48.898;9.182;2022-12-07T14:12:31;4.50;6.90
3308;DHT22;1666;48.898;9.182;2022-12-07T14:15:05;4.50;7.90
3308;DHT22;1666;48.898;9.182;2022-12-07T14:17:36;4.60;8.70
3308;DHT22;1666;48.898;9.182;2022-12-07T14:20:33;4.40;7.30
3308;DHT22;1666;48.898;9.182;2022-12-07T14:23:05;4.50;7.50
3308;DHT22;1666;48.898;9.182;2022-12-07T14:25:51;4.40;7.00
3308;DHT22;1666;48.898;9.182;2022-12-07T14:28:26;4.30;8.60
3308;DHT22;1666;48.898;9.182;2022-12-07T14:30:58;4.30;8.50
3308;DHT22;1666;48.898;9.182;2022-12-07T14:33:29;4.30;8.50
3308;DHT22;1666;48.898;9.182;2022-12-07T14:35:58;4.20;8.40
3308;DHT22;1666;48.898;9.182;2022-12-07T14:38:29;4.30;8.60
3308;DHT22;1666;48.898;9.182;2022-12-07T14:40:59;4.30;8.60
3308;DHT22;1666;48.898;9.182;2022-12-07T14:43:49;4.30;8.60
3308;DHT22;1666;48.898;9.182;2022-12-07T14:46:41;4.20;8.70
3308;DHT22;1666;48.898;9.182;2022-12-07T14:49:13;4.10;9.20
3308;DHT22;1666;48.898;9.182;2022-12-07T14:51:58;4.00;9.90
3308;DHT22;1666;48.898;9.182;2022-12-07T14:54:48;4.20;11.00
3308;DHT22;1666;48.898;9.182;2022-12-07T14:57:18;4.10;10.90
3308;DHT22;1666;48.898;9.182;2022-12-07T14:59:48;4.10;11.30
3308;DHT22;1666;48.898;9.182;2022-12-07T15:02:20;4.10;11.80
3308;DHT22;1666;48.898;9.182;2022-12-07T15:04:50;4.10;12.00
3308;DHT22;1666;48.898;9.182;2022-12-07T15:07:21;4.00;12.70
3308;DHT22;1666;48.898;9.182;2022-12-07T15:09:52;4.00;14.00
3308;DHT22;1666;48.898;9.182;2022-12-07T15:12:21;4.10;13.60
3308;DHT22;1666;48.898;9.182;2022-12-07T15:14:51;4.10;12.90
3308;DHT22;1666;48.898;9.182;2022-12-07T15:17:24;4.00;12.00
3308;DHT22;1666;48.898;9.182;2022-12-07T15:19:58;4.00;11.90
3308;DHT22;1666;48.898;9.182;2022-12-07T15:22:28;4.00;11.90
3308;DHT22;1666;48.898;9.182;2022-12-07T15:25:05;4.00;11.90
3308;DHT22;1666;48.898;9.182;2022-12-07T15:27:35;4.00;13.80
3308;DHT22;1666;48.898;9.182;2022-12-07T15:30:06;3.90;14.40
3308;DHT22;1666;48.898;9.182;2022-12-07T15:32:39;4.10;17.10
3308;DHT22;1666;48.898;9.182;2022-12-07T15:35:09;4.10;14.70
3308;DHT22;1666;48.898;9.182;2022-12-07T15:37:39;4.00;14.30
3308;DHT22;1666;48.898;9.182;2022-12-07T15:40:10;4.00;14.20
3308;DHT22;1666;48.898;9.182;2022-12-07T15:42:40;4.00;15.50
3308;DHT22;1666;48.898;9.182;2022-12-07T15:45:10;4.00;14.90
3308;DHT22;1666;48.898;9.182;2022-12-07T15:47:42;4.00;14.30
3308;DHT22;1666;48.898;9.182;2022-12-07T15:50:32;3.90;14.90
3308;DHT22;1666;48.898;9.182;2022-12-07T15:53:02;3.80;14.70
3308;DHT22;1666;48.898;9.182;2022-12-07T15:55:32;3.90;14.50
3308;DHT22;1666;48.898;9.182;2022-12-07T15:58:01;3.90;15.40
3308;DHT22;1666;48.898;9.182;2022-12-07T16:00:32;4.00;14.70
3308;DHT22;1666;48.898;9.182;2022-12-07T16:03:04;4.00;14.20
3308;DHT22;1666;48.898;9.182;2022-12-07T16:05:34;3.80;13.80
3308;DHT22;1666;48.898;9.182;2022-12-07T16:08:04;3.80;13.70
3308;DHT22;1666;48.898;9.182;2022-12-07T16:10:34;3.70;13.20
3308;DHT22;1666;48.898;9.182;2022-12-07T16:13:04;3.70;14.00
3308;DHT22;1666;48.898;9.182;2022-12-07T16:15:37;3.70;14.30
3308;DHT22;1666;48.898;9.182;2022-12-07T16:18:10;3.70;14.10
3308;DHT22;1666;48.898;9.182;2022-12-07T16:20:40;3.70;14.20
3308;DHT22;1666;48.898;9.182;2022-12-07T16:23:10;3.70;13.80
3308;DHT22;1666;48.898;9.182;2022-12-07T16:25:39;3.70;14.20
3308;DHT22;1666;48.898;9.182;2022-12-07T16:28:09;3.60;13.50
3308;DHT22;1666;48.898;9.182;2022-12-07T16:30:39;3.70;13.80
3308;DHT22;1666;48.898;9.182;2022-12-07T16:33:12;3.70;13.90
3308;DHT22;1666;48.898;9.182;2022-12-07T16:35:41;3.70;14.70
3308;DHT22;1666;48.898;9.182;2022-12-07T16:38:11;3.60;14.30
3308;DHT22;1666;48.898;9.182;2022-12-07T16:40:41;3.50;14.70
3308;DHT22;1666;48.898;9.182;2022-12-07T16:43:13;3.50;14.90
3308;DHT22;1666;48.898;9.182;2022-12-07T16:45:43;3.40;15.10
3308;DHT22;1666;48.898;9.182;2022-12-07T16:48:16;3.40;15.30
3308;DHT22;1666;48.898;9.182;2022-12-07T16:50:45;3.40;15.30
3308;DHT22;1666;48.898;9.182;2022-12-07T16:53:17;3.40;15.60
3308;DHT22;1666;48.898;9.182;2022-12-07T16:55:48;3.20;14.80
3308;DHT22;1666;48.898;9.182;2022-12-07T16:58:18;3.20;14.90
3308;DHT22;1666;48.898;9.182;2022-12-07T17:00:49;3.20;14.50
3308;DHT22;1666;48.898;9.182;2022-12-07T17:03:22;3.30;14.40
3308;DHT22;1666;48.898;9.182;2022-12-07T17:05:52;3.30;13.50
3308;DHT22;1666;48.898;9.182;2022-12-07T17:08:21;3.40;13.20
3308;DHT22;1666;48.898;9.182;2022-12-07T17:10:52;3.30;12.50
3308;DHT22;1666;48.898;9.182;2022-12-07T17:13:23;3.30;12.70
3308;DHT22;1666;48.898;9.182;2022-12-07T17:16:06;3.40;12.00
3308;DHT22;1666;48.898;9.182;2022-12-07T17:18:39;3.40;11.60
3308;DHT22;1666;48.898;9.182;2022-12-07T17:21:09;3.30;11.50
3308;DHT22;1666;48.898;9.182;2022-12-07T17:23:39;3.30;12.90
3308;DHT22;1666;48.898;9.182;2022-12-07T17:26:10;3.30;12.20
3308;DHT22;1666;48.898;9.182;2022-12-07T17:28:41;3.40;12.40
3308;DHT22;1666;48.898;9.182;2022-12-07T17:31:16;3.30;12.30
3308;DHT22;1666;48.898;9.182;2022-12-07T17:33:49;3.40;12.80